sensor_id;sensor_type;location;lat;lon;timestamp;temperature;humidity
9975;DHT22;5028;50.974;4.968;2023-06-24T00:01:51;19.10;99.90
9975;DHT22;5028;50.974;4.968;2023-06-24T00:04:20;19.00;99.90
9975;DHT22;5028;50.974;4.968;2023-06-24T00:06:50;19.00;99.90
9975;DHT22;5028;50.974;4.968;2023-06-24T00:09:20;19.00;99.90
9975;DHT22;5028;50.974;4.968;2023-06-24T00:11:48;18.90;99.90
9975;DHT22;5028;50.974;4.968;2023-06-24T00:14:17;18.90;99.90
9975;DHT22;5028;50.974;4.968;2023-06-24T00:16:50;18.80;99.90
9975;DHT22;5028;50.974;4.968;2023-06-24T00:19:19;18.80;99.90
9975;DHT22;5028;50.974;4.968;2023-06-24T00:21:48;18.70;99.90
9975;DHT22;5028;50.974;4.968;2023-06-24T00:24:18;18.70;99.90
9975;DHT22;5028;50.974;4.968;2023-06-24T00:26:47;18.60;99.90
9975;DHT22;5028;50.974;4.968;2023-06-24T00:29:16;18.60;99.90
9975;DHT22;5028;50.974;4.968;2023-06-24T00:31:46;18.60;99.90
9975;DHT22;5028;50.974;4.968;2023-06-24T00:34:16;18.50;99.90
9975;DHT22;5028;50.974;4.968;2023-06-24T00:36:47;18.50;99.90
9975;DHT22;5028;50.974;4.968;2023-06-24T00:39:16;18.50;99.90
9975;DHT22;5028;50.974;4.968;2023-06-24T00:41:45;18.50;99.90
9975;DHT22;5028;50.974;4.968;2023-06-24T00:44:14;18.40;99.90
9975;DHT22;5028;50.974;4.968;2023-06-24T00:46:42;18.40;99.90
9975;DHT22;5028;50.974;4.968;2023-06-24T00:49:11;18.30;99.90
9975;DHT22;5028;50.974;4.968;2023-06-24T00:51:42;18.20;99.90
9975;DHT22;5028;50.974;4.968;2023-06-24T00:54:14;18.20;99.90
9975;DHT22;5028;50.974;4.968;2023-06-24T00:56:43;18.10;99.90
9975;DHT22;5028;50.974;4.968;2023-06-24T00:59:13;18.00;99.90
9975;DHT22;5028;50.974;4.968;2023-06-24T01:01:43;18.00;99.90
9975;DHT22;5028;50.974;4.968;2023-06-24T01:04:13;18.00;99.90
9975;DHT22;5028;50.974;4.968;2023-06-24T01:06:45;17.90;99.90
9975;DHT22;5028;50.974;4.968;2023-06-24T01:09:14;17.90;99.90
9975;DHT22;5028;50.974;4.968;2023-06-24T01:11:42;17.90;99.90
9975;DHT22;5028;50.974;4.968;2023-06-24T01:14:11;17.80;99.90
9975;DHT22;5028;50.974;4.968;2023-06-24T01:16:44;17.80;99.90
9975;DHT22;5028;50.974;4.968;2023-06-24T01:22:19;17.60;99.90
9975;DHT22;5028;50.974;4.968;2023-06-24T01:25:02;17.60;99.90
9975;DHT22;5028;50.974;4.968;2023-06-24T01:27:45;17.60;99.90
9975;DHT22;5028;50.974;4.968;2023-06-24T01:30:39;17.60;99.90
9975;DHT22;5028;50.974;4.968;2023-06-24T01:33:18;17.50;99.90
9975;DHT22;5028;50.974;4.968;2023-06-24T01:35:53;17.50;99.90
9975;DHT22;5028;50.974;4.968;2023-06-24T01:38:27;17.40;99.90
9975;DHT22;5028;50.974;4.968;2023-06-24T01:41:03;17.40;99.90
9975;DHT22;5028;50.974;4.968;2023-06-24T01:43:34;17.30;99.90
9975;DHT22;5028;50.974;4.968;2023-06-24T01:46:06;17.20;99.90
9975;DHT22;5028;50.974;4.968;2023-06-24T01:48:39;17.20;99.90
9975;DHT22;5028;50.974;4.968;2023-06-24T01:51:13;17.20;99.90
9975;DHT22;5028;50.974;4.968;2023-06-24T01:53:47;17.20;99.90
9975;DHT22;5028;50.974;4.968;2023-06-24T01:56:17;17.20;99.90
9975;DHT22;5028;50.974;4.968;2023-06-24T01:58:47;17.10;99.90
9975;DHT22;5028;50.974;4.968;2023-06-24T02:01:19;17.10;99.90
9975;DHT22;5028;50.974;4.968;2023-06-24T02:03:51;17.10;99.90
9975;DHT22;5028;50.974;4.968;2023-06-24T02:06:21;17.10;99.90
9975;DHT22;5028;50.974;4.968;2023-06-24T02:08:51;17.10;99.90
9975;DHT22;5028;50.974;4.968;2023-06-24T02:11:21;17.10;99.90
9975;DHT22;5028;50.974;4.968;2023-06-24T02:13:54;17.10;99.90
9975;DHT22;5028;50.974;4.968;2023-06-24T02:16:24;17.10;99.90
9975;DHT22;5028;50.974;4.968;2023-06-24T02:18:56;17.10;99.90
9975;DHT22;5028;50.974;4.968;2023-06-24T02:21:26;17.10;99.90
9975;DHT22;5028;50.974;4.968;2023-06-24T02:23:56;17.00;99.90
9975;DHT22;5028;50.974;4.968;2023-06-24T02:26:25;17.00;99.90
9975;DHT22;5028;50.974;4.968;2023-06-24T02:28:54;17.00;99.90
9975;DHT22;5028;50.974;4.968;2023-06-24T02:31:25;17.00;99.90
9975;DHT22;5028;50.974;4.968;2023-06-24T02:33:55;17.00;99.90
9975;DHT22;5028;50.974;4.968;2023-06-24T02:36:24;16.90;99.90
9975;DHT22;5028;50.974;4.968;2023-06-24T02:38:53;16.90;99.90
9975;DHT22;5028;50.974;4.968;2023-06-24T02:41:22;16.90;99.90
9975;DHT22;5028;50.974;4.968;2023-06-24T02:43:50;16.90;99.90
9975;DHT22;5028;50.974;4.968;2023-06-24T02:46:19;16.80;99.90
9975;DHT22;5028;50.974;4.968;2023-06-24T02:48:49;16.80;99.90
9975;DHT22;5028;50.974;4.968;2023-06-24T02:51:20;16.80;99.90
9975;DHT22;5028;50.974;4.968;2023-06-24T02:53:50;16.80;99.90
9975;DHT22;5028;50.974;4.968;2023-06-24T02:56:19;16.80;99.90
9975;DHT22;5028;50.974;4.968;2023-06-24T02:58:50;16.80;99.90
9975;DHT22;5028;50.974;4.968;2023-06-24T03:01:21;16.70;99.90
9975;DHT22;5028;50.974;4.968;2023-06-24T03:03:53;16.70;99.90
9975;DHT22;5028;50.974;4.968;2023-06-24T03:06:23;16.80;99.90
9975;DHT22;5028;50.974;4.968;2023-06-24T03:08:54;16.80;99.90
9975;DHT22;5028;50.974;4.968;2023-06-24T03:11:22;16.80;99.90
9975;DHT22;5028;50.974;4.968;2023-06-24T03:13:51;16.80;99.90
9975;DHT22;5028;50.974;4.968;2023-06-24T03:16:19;16.80;99.90
9975;DHT22;5028;50.974;4.968;2023-06-24T03:18:48;16.70;99.90
9975;DHT22;5028;50.974;4.968;2023-06-24T03:21:17;16.70;99.90
9975;DHT22;5028;50.974;4.968;2023-06-24T03:23:48;16.70;99.90
9975;DHT22;5028;50.974;4.968;2023-06-24T03:26:16;16.70;99.90
9975;DHT22;5028;50.974;4.968;2023-06-24T03:28:45;16.60;99.90
9975;DHT22;5028;50.974;4.968;2023-06-24T03:31:14;16.60;99.90
9975;DHT22;5028;50.974;4.968;2023-06-24T03:33:43;16.60;99.90
9975;DHT22;5028;50.974;4.968;2023-06-24T03:36:12;16.60;99.90
9975;DHT22;5028;50.974;4.968;2023-06-24T03:38:41;16.60;99.90
9975;DHT22;5028;50.974;4.968;2023-06-24T03:41:11;16.60;99.90
9975;DHT22;5028;50.974;4.968;2023-06-24T03:43:40;16.50;99.90
9975;DHT22;5028;50.974;4.968;2023-06-24T03:46:10;16.50;99.90
9975;DHT22;5028;50.974;4.968;2023-06-24T03:48:39;16.50;99.90
9975;DHT22;5028;50.974;4.968;2023-06-24T03:51:08;16.50;99.90
9975;DHT22;5028;50.974;4.968;2023-06-24T03:53:37;16.40;99.90
9975;DHT22;5028;50.974;4.968;2023-06-24T03:56:05;16.40;99.90
9975;DHT22;5028;50.974;4.968;2023-06-24T03:58:35;16.40;99.90
9975;DHT22;5028;50.974;4.968;2023-06-24T04:01:04;16.40;99.90
9975;DHT22;5028;50.974;4.968;2023-06-24T04:03:33;16.40;99.90
9975;DHT22;5028;50.974;4.968;2023-06-24T04:06:02;16.40;99.90
9975;DHT22;5028;50.974;4.968;2023-06-24T04:08:30;16.40;99.90
9975;DHT22;5028;50.974;4.968;2023-06-24T04:10:59;16.50;99.90
9975;DHT22;5028;50.974;4.968;2023-06-24T04:13:30;16.40;99.90
9975;DHT22;5028;50.974;4.968;2023-06-24T04:16:03;16.40;99.90
9975;DHT22;5028;50.974;4.968;2023-06-24T04:18:31;16.50;99.90
9975;DHT22;5028;50.974;4.968;2023-06-24T04:21:00;16.50;99.90
9975;DHT22;5028;50.974;4.968;2023-06-24T04:23:28;16.50;99.90
9975;DHT22;5028;50.974;4.968;2023-06-24T04:25:57;16.50;99.90
9975;DHT22;5028;50.974;4.968;2023-06-24T04:28:26;16.50;99.90
9975;DHT22;5028;50.974;4.968;2023-06-24T04:30:57;16.60;99.90
9975;DHT22;5028;50.974;4.968;2023-06-24T04:33:28;16.60;99.90
9975;DHT22;5028;50.974;4.968;2023-06-24T04:35:56;16.70;99.90
9975;DHT22;5028;50.974;4.968;2023-06-24T04:38:25;16.70;99.90
9975;DHT22;5028;50.974;4.968;2023-06-24T04:40:54;16.70;99.90
9975;DHT22;5028;50.974;4.968;2023-06-24T04:43:24;16.80;99.90
9975;DHT22;5028;50.974;4.968;2023-06-24T04:45:52;16.80;99.90
9975;DHT22;5028;50.974;4.968;2023-06-24T04:48:23;16.90;99.90
9975;DHT22;5028;50.974;4.968;2023-06-24T04:50:53;16.90;99.90
9975;DHT22;5028;50.974;4.968;2023-06-24T04:53:22;16.90;99.90
9975;DHT22;5028;50.974;4.968;2023-06-24T04:55:51;17.00;99.90
9975;DHT22;5028;50.974;4.968;2023-06-24T04:58:19;17.10;99.90
9975;DHT22;5028;50.974;4.968;2023-06-24T05:00:49;17.20;99.90
9975;DHT22;5028;50.974;4.968;2023-06-24T05:03:17;17.30;99.90
9975;DHT22;5028;50.974;4.968;2023-06-24T05:05:46;17.30;99.90
9975;DHT22;5028;50.974;4.968;2023-06-24T05:08:17;17.50;99.90
9975;DHT22;5028;50.974;4.968;2023-06-24T05:10:45;17.50;99.90
9975;DHT22;5028;50.974;4.968;2023-06-24T05:13:14;17.60;99.90
9975;DHT22;5028;50.974;4.968;2023-06-24T05:15:43;17.70;99.90
9975;DHT22;5028;50.974;4.968;2023-06-24T05:18:12;17.80;99.90
9975;DHT22;5028;50.974;4.968;2023-06-24T05:20:40;17.80;99.90
9975;DHT22;5028;50.974;4.968;2023-06-24T05:23:09;17.90;99.90
9975;DHT22;5028;50.974;4.968;2023-06-24T05:25:39;18.00;99.90
9975;DHT22;5028;50.974;4.968;2023-06-24T05:28:07;18.10;99.90
9975;DHT22;5028;50.974;4.968;2023-06-24T05:30:36;18.30;99.90
9975;DHT22;5028;50.974;4.968;2023-06-24T05:33:04;18.50;99.90
9975;DHT22;5028;50.974;4.968;2023-06-24T05:35:36;18.60;99.90
9975;DHT22;5028;50.974;4.968;2023-06-24T05:38:07;18.80;99.90
9975;DHT22;5028;50.974;4.968;2023-06-24T05:40:36;18.90;99.90
9975;DHT22;5028;50.974;4.968;2023-06-24T05:43:06;18.90;99.90
9975;DHT22;5028;50.974;4.968;2023-06-24T05:45:35;18.90;99.90
9975;DHT22;5028;50.974;4.968;2023-06-24T05:48:04;19.10;99.90
9975;DHT22;5028;50.974;4.968;2023-06-24T05:50:33;19.20;99.90
9975;DHT22;5028;50.974;4.968;2023-06-24T05:53:02;19.20;99.90
9975;DHT22;5028;50.974;4.968;2023-06-24T05:55:31;19.40;99.90
9975;DHT22;5028;50.974;4.968;2023-06-24T05:58:00;19.50;99.90
9975;DHT22;5028;50.974;4.968;2023-06-24T06:00:30;19.70;99.90
9975;DHT22;5028;50.974;4.968;2023-06-24T06:02:59;19.90;99.90
9975;DHT22;5028;50.974;4.968;2023-06-24T06:05:28;20.00;99.90
9975;DHT22;5028;50.974;4.968;2023-06-24T06:07:57;20.00;99.90
9975;DHT22;5028;50.974;4.968;2023-06-24T06:10:26;20.00;99.90
9975;DHT22;5028;50.974;4.968;2023-06-24T06:12:55;20.10;99.90
9975;DHT22;5028;50.974;4.968;2023-06-24T06:15:24;20.30;99.90
9975;DHT22;5028;50.974;4.968;2023-06-24T06:17:54;20.30;99.90
9975;DHT22;5028;50.974;4.968;2023-06-24T06:20:23;20.20;99.90
9975;DHT22;5028;50.974;4.968;2023-06-24T06:22:51;20.30;99.90
9975;DHT22;5028;50.974;4.968;2023-06-24T06:25:20;20.40;99.90
9975;DHT22;5028;50.974;4.968;2023-06-24T06:27:49;20.40;99.90
9975;DHT22;5028;50.974;4.968;2023-06-24T06:30:17;20.60;99.90
9975;DHT22;5028;50.974;4.968;2023-06-24T06:32:46;20.70;99.90
9975;DHT22;5028;50.974;4.968;2023-06-24T06:35:17;20.90;99.90
9975;DHT22;5028;50.974;4.968;2023-06-24T06:37:45;20.90;99.90
9975;DHT22;5028;50.974;4.968;2023-06-24T06:40:22;21.00;99.90
9975;DHT22;5028;50.974;4.968;2023-06-24T06:42:51;21.10;99.90
9975;DHT22;5028;50.974;4.968;2023-06-24T06:45:20;21.10;99.90
9975;DHT22;5028;50.974;4.968;2023-06-24T06:47:49;21.00;99.90
9975;DHT22;5028;50.974;4.968;2023-06-24T06:50:20;21.00;99.90
9975;DHT22;5028;50.974;4.968;2023-06-24T06:52:49;20.90;99.90
9975;DHT22;5028;50.974;4.968;2023-06-24T06:55:18;20.80;99.90
9975;DHT22;5028;50.974;4.968;2023-06-24T06:57:46;20.80;99.90
9975;DHT22;5028;50.974;4.968;2023-06-24T07:00:16;20.80;99.90
9975;DHT22;5028;50.974;4.968;2023-06-24T07:02:44;20.70;99.90
9975;DHT22;5028;50.974;4.968;2023-06-24T07:05:14;20.70;99.90
9975;DHT22;5028;50.974;4.968;2023-06-24T07:07:44;20.70;99.90
9975;DHT22;5028;50.974;4.968;2023-06-24T07:10:13;20.60;99.90
9975;DHT22;5028;50.974;4.968;2023-06-24T07:12:41;20.50;99.90
9975;DHT22;5028;50.974;4.968;2023-06-24T07:15:10;20.50;99.90
9975;DHT22;5028;50.974;4.968;2023-06-24T07:17:40;20.50;99.90
9975;DHT22;5028;50.974;4.968;2023-06-24T07:20:09;20.50;99.90
9975;DHT22;5028;50.974;4.968;2023-06-24T07:22:38;20.50;99.90
9975;DHT22;5028;50.974;4.968;2023-06-24T07:25:09;20.50;99.90
9975;DHT22;5028;50.974;4.968;2023-06-24T07:27:38;20.50;99.90
9975;DHT22;5028;50.974;4.968;2023-06-24T07:30:07;20.60;99.90
9975;DHT22;5028;50.974;4.968;2023-06-24T07:32:37;20.60;99.90
9975;DHT22;5028;50.974;4.968;2023-06-24T07:35:06;20.70;99.90
9975;DHT22;5028;50.974;4.968;2023-06-24T07:37:35;20.90;99.90
9975;DHT22;5028;50.974;4.968;2023-06-24T07:40:09;21.10;99.90
9975;DHT22;5028;50.974;4.968;2023-06-24T07:42:37;21.30;99.90
9975;DHT22;5028;50.974;4.968;2023-06-24T07:45:07;21.40;99.90
9975;DHT22;5028;50.974;4.968;2023-06-24T07:47:35;21.60;99.90
9975;DHT22;5028;50.974;4.968;2023-06-24T07:50:05;21.70;99.90
9975;DHT22;5028;50.974;4.968;2023-06-24T07:52:35;21.90;99.90
9975;DHT22;5028;50.974;4.968;2023-06-24T07:55:05;22.10;99.90
9975;DHT22;5028;50.974;4.968;2023-06-24T07:57:35;22.30;99.90
9975;DHT22;5028;50.974;4.968;2023-06-24T08:00:06;22.50;99.90
9975;DHT22;5028;50.974;4.968;2023-06-24T08:02:36;22.60;99.90
9975;DHT22;5028;50.974;4.968;2023-06-24T08:05:06;22.70;99.90
9975;DHT22;5028;50.974;4.968;2023-06-24T08:07:36;22.80;99.90
9975;DHT22;5028;50.974;4.968;2023-06-24T08:10:06;23.00;99.90
9975;DHT22;5028;50.974;4.968;2023-06-24T08:12:36;23.20;99.90
9975;DHT22;5028;50.974;4.968;2023-06-24T08:15:06;23.40;99.90
9975;DHT22;5028;50.974;4.968;2023-06-24T08:17:35;23.50;99.90
9975;DHT22;5028;50.974;4.968;2023-06-24T08:20:05;23.50;99.90
9975;DHT22;5028;50.974;4.968;2023-06-24T08:22:34;23.60;99.90
9975;DHT22;5028;50.974;4.968;2023-06-24T08:25:03;23.80;99.90
9975;DHT22;5028;50.974;4.968;2023-06-24T08:27:32;24.10;99.90
9975;DHT22;5028;50.974;4.968;2023-06-24T08:30:03;24.30;99.90
9975;DHT22;5028;50.974;4.968;2023-06-24T08:32:31;24.40;99.90
9975;DHT22;5028;50.974;4.968;2023-06-24T08:35:00;24.30;99.90
9975;DHT22;5028;50.974;4.968;2023-06-24T08:37:29;24.70;99.90
9975;DHT22;5028;50.974;4.968;2023-06-24T08:39:58;24.70;99.90
9975;DHT22;5028;50.974;4.968;2023-06-24T08:42:27;24.80;99.90
9975;DHT22;5028;50.974;4.968;2023-06-24T08:44:55;24.90;99.90
9975;DHT22;5028;50.974;4.968;2023-06-24T08:47:25;25.00;99.90
9975;DHT22;5028;50.974;4.968;2023-06-24T08:50:02;25.40;99.90
9975;DHT22;5028;50.974;4.968;2023-06-24T08:52:36;25.70;99.90
9975;DHT22;5028;50.974;4.968;2023-06-24T08:55:06;26.00;99.90
9975;DHT22;5028;50.974;4.968;2023-06-24T08:57:37;26.30;99.90
9975;DHT22;5028;50.974;4.968;2023-06-24T09:00:07;26.40;99.90
9975;DHT22;5028;50.974;4.968;2023-06-24T09:02:38;26.50;99.90
9975;DHT22;5028;50.974;4.968;2023-06-24T09:05:07;26.70;99.90
9975;DHT22;5028;50.974;4.968;2023-06-24T09:07:36;27.00;99.90
9975;DHT22;5028;50.974;4.968;2023-06-24T09:10:06;27.30;99.90
9975;DHT22;5028;50.974;4.968;2023-06-24T09:12:35;27.50;99.90
9975;DHT22;5028;50.974;4.968;2023-06-24T09:15:04;27.60;99.90
9975;DHT22;5028;50.974;4.968;2023-06-24T09:17:45;27.60;99.90
9975;DHT22;5028;50.974;4.968;2023-06-24T09:20:19;27.90;99.90
9975;DHT22;5028;50.974;4.968;2023-06-24T09:22:50;28.10;99.90
9975;DHT22;5028;50.974;4.968;2023-06-24T09:25:19;28.40;99.90
9975;DHT22;5028;50.974;4.968;2023-06-24T09:27:48;28.50;99.90
9975;DHT22;5028;50.974;4.968;2023-06-24T09:30:20;28.50;99.90
9975;DHT22;5028;50.974;4.968;2023-06-24T09:32:51;28.40;99.90
9975;DHT22;5028;50.974;4.968;2023-06-24T09:35:22;28.60;99.90
9975;DHT22;5028;50.974;4.968;2023-06-24T09:37:52;28.90;99.90
9975;DHT22;5028;50.974;4.968;2023-06-24T09:40:21;29.20;99.90
9975;DHT22;5028;50.974;4.968;2023-06-24T09:42:51;29.30;99.90
9975;DHT22;5028;50.974;4.968;2023-06-24T09:45:24;29.10;99.90
9975;DHT22;5028;50.974;4.968;2023-06-24T09:47:55;29.10;99.90
9975;DHT22;5028;50.974;4.968;2023-06-24T09:50:25;29.20;99.90
9975;DHT22;5028;50.974;4.968;2023-06-24T09:52:53;29.00;99.90
9975;DHT22;5028;50.974;4.968;2023-06-24T09:55:24;28.70;99.90
9975;DHT22;5028;50.974;4.968;2023-06-24T09:57:53;28.80;99.90
9975;DHT22;5028;50.974;4.968;2023-06-24T10:00:23;29.30;99.90
9975;DHT22;5028;50.974;4.968;2023-06-24T10:02:55;29.30;99.90
9975;DHT22;5028;50.974;4.968;2023-06-24T10:05:27;29.60;99.90
9975;DHT22;5028;50.974;4.968;2023-06-24T10:07:56;30.10;99.90
9975;DHT22;5028;50.974;4.968;2023-06-24T10:10:24;29.70;99.90
9975;DHT22;5028;50.974;4.968;2023-06-24T10:12:53;29.70;99.90
9975;DHT22;5028;50.974;4.968;2023-06-24T10:15:22;30.00;99.90
9975;DHT22;5028;50.974;4.968;2023-06-24T10:18:01;30.10;99.90
9975;DHT22;5028;50.974;4.968;2023-06-24T10:20:37;30.00;99.90
9975;DHT22;5028;50.974;4.968;2023-06-24T10:23:06;30.20;99.90
9975;DHT22;5028;50.974;4.968;2023-06-24T10:25:36;30.10;99.10
9975;DHT22;5028;50.974;4.968;2023-06-24T10:28:05;30.00;99.60
9975;DHT22;5028;50.974;4.968;2023-06-24T10:30:36;30.00;99.50
9975;DHT22;5028;50.974;4.968;2023-06-24T10:33:10;30.30;99.30
9975;DHT22;5028;50.974;4.968;2023-06-24T10:35:42;30.10;98.20
9975;DHT22;5028;50.974;4.968;2023-06-24T10:38:11;30.10;99.40
9975;DHT22;5028;50.974;4.968;2023-06-24T10:40:41;30.40;99.00
9975;DHT22;5028;50.974;4.968;2023-06-24T10:43:27;30.60;99.30
9975;DHT22;5028;50.974;4.968;2023-06-24T10:45:57;30.90;98.10
9975;DHT22;5028;50.974;4.968;2023-06-24T10:48:28;31.00;97.50
9975;DHT22;5028;50.974;4.968;2023-06-24T10:50:57;30.80;96.90
9975;DHT22;5028;50.974;4.968;2023-06-24T10:53:26;30.70;97.00
9975;DHT22;5028;50.974;4.968;2023-06-24T10:55:57;30.80;95.90
9975;DHT22;5028;50.974;4.968;2023-06-24T10:58:27;30.70;95.50
9975;DHT22;5028;50.974;4.968;2023-06-24T11:01:07;30.10;96.70
9975;DHT22;5028;50.974;4.968;2023-06-24T11:03:41;30.50;97.80
9975;DHT22;5028;50.974;4.968;2023-06-24T11:06:10;31.10;98.10
9975;DHT22;5028;50.974;4.968;2023-06-24T11:08:44;31.70;98.10
9975;DHT22;5028;50.974;4.968;2023-06-24T11:11:20;32.00;95.00
9975;DHT22;5028;50.974;4.968;2023-06-24T11:13:49;32.10;94.20
9975;DHT22;5028;50.974;4.968;2023-06-24T11:16:22;31.10;93.80
9975;DHT22;5028;50.974;4.968;2023-06-24T11:18:52;30.50;95.50
9975;DHT22;5028;50.974;4.968;2023-06-24T11:21:28;30.80;96.40
9975;DHT22;5028;50.974;4.968;2023-06-24T11:24:01;30.90;95.40
9975;DHT22;5028;50.974;4.968;2023-06-24T11:26:30;30.80;95.20
9975;DHT22;5028;50.974;4.968;2023-06-24T11:28:59;31.00;95.70
9975;DHT22;5028;50.974;4.968;2023-06-24T11:31:27;31.50;95.60
9975;DHT22;5028;50.974;4.968;2023-06-24T11:33:58;31.80;95.30
9975;DHT22;5028;50.974;4.968;2023-06-24T11:36:26;31.70;95.00
9975;DHT22;5028;50.974;4.968;2023-06-24T11:38:55;31.90;93.80
9975;DHT22;5028;50.974;4.968;2023-06-24T11:41:25;31.80;93.80
9975;DHT22;5028;50.974;4.968;2023-06-24T11:43:57;31.50;93.70
9975;DHT22;5028;50.974;4.968;2023-06-24T11:46:27;30.80;93.40
9975;DHT22;5028;50.974;4.968;2023-06-24T11:49:17;30.50;93.40
9975;DHT22;5028;50.974;4.968;2023-06-24T11:51:47;30.50;93.60
9975;DHT22;5028;50.974;4.968;2023-06-24T11:54:17;30.10;93.80
9975;DHT22;5028;50.974;4.968;2023-06-24T11:56:50;30.50;95.00
9975;DHT22;5028;50.974;4.968;2023-06-24T11:59:20;31.10;93.00
9975;DHT22;5028;50.974;4.968;2023-06-24T12:01:53;31.50;92.70
9975;DHT22;5028;50.974;4.968;2023-06-24T12:04:29;31.40;92.90
9975;DHT22;5028;50.974;4.968;2023-06-24T12:06:59;31.00;92.20
9975;DHT22;5028;50.974;4.968;2023-06-24T12:09:29;30.20;92.90
9975;DHT22;5028;50.974;4.968;2023-06-24T12:11:57;30.20;93.60
9975;DHT22;5028;50.974;4.968;2023-06-24T12:14:26;30.90;93.70
9975;DHT22;5028;50.974;4.968;2023-06-24T12:16:55;30.50;92.90
9975;DHT22;5028;50.974;4.968;2023-06-24T12:19:24;30.50;93.20
9975;DHT22;5028;50.974;4.968;2023-06-24T12:21:55;30.20;92.70
9975;DHT22;5028;50.974;4.968;2023-06-24T12:24:26;29.70;93.70
9975;DHT22;5028;50.974;4.968;2023-06-24T12:26:55;30.10;93.70
9975;DHT22;5028;50.974;4.968;2023-06-24T12:29:24;29.80;92.90
9975;DHT22;5028;50.974;4.968;2023-06-24T12:31:52;29.90;94.40
9975;DHT22;5028;50.974;4.968;2023-06-24T12:34:21;30.30;92.80
9975;DHT22;5028;50.974;4.968;2023-06-24T12:36:50;29.90;93.10
9975;DHT22;5028;50.974;4.968;2023-06-24T12:39:21;29.70;93.20
9975;DHT22;5028;50.974;4.968;2023-06-24T12:41:50;29.70;92.70
9975;DHT22;5028;50.974;4.968;2023-06-24T12:44:19;29.40;92.80
9975;DHT22;5028;50.974;4.968;2023-06-24T12:46:48;29.60;92.60
9975;DHT22;5028;50.974;4.968;2023-06-24T12:49:17;29.50;92.80
9975;DHT22;5028;50.974;4.968;2023-06-24T12:51:45;29.30;93.60
9975;DHT22;5028;50.974;4.968;2023-06-24T12:54:14;29.80;94.30
9975;DHT22;5028;50.974;4.968;2023-06-24T12:56:44;30.70;92.90
9975;DHT22;5028;50.974;4.968;2023-06-24T12:59:14;30.80;93.00
9975;DHT22;5028;50.974;4.968;2023-06-24T13:01:43;31.10;91.90
9975;DHT22;5028;50.974;4.968;2023-06-24T13:04:13;30.80;91.40
9975;DHT22;5028;50.974;4.968;2023-06-24T13:06:42;31.00;92.80
9975;DHT22;5028;50.974;4.968;2023-06-24T13:09:11;31.40;92.00
9975;DHT22;5028;50.974;4.968;2023-06-24T13:11:40;31.40;91.60
9975;DHT22;5028;50.974;4.968;2023-06-24T13:14:10;31.10;91.20
9975;DHT22;5028;50.974;4.968;2023-06-24T13:16:39;30.30;92.30
9975;DHT22;5028;50.974;4.968;2023-06-24T13:19:07;30.40;91.80
9975;DHT22;5028;50.974;4.968;2023-06-24T13:21:36;29.90;91.50
9975;DHT22;5028;50.974;4.968;2023-06-24T13:24:06;29.90;92.10
9975;DHT22;5028;50.974;4.968;2023-06-24T13:26:36;31.00;92.80
9975;DHT22;5028;50.974;4.968;2023-06-24T13:29:05;31.70;90.80
9975;DHT22;5028;50.974;4.968;2023-06-24T13:31:37;31.70;91.80
9975;DHT22;5028;50.974;4.968;2023-06-24T13:34:06;31.40;90.60
9975;DHT22;5028;50.974;4.968;2023-06-24T13:36:36;31.50;91.30
9975;DHT22;5028;50.974;4.968;2023-06-24T13:39:07;32.00;91.00
9975;DHT22;5028;50.974;4.968;2023-06-24T13:41:35;32.40;90.10
9975;DHT22;5028;50.974;4.968;2023-06-24T13:44:04;32.60;90.30
9975;DHT22;5028;50.974;4.968;2023-06-24T13:46:33;32.90;90.40
9975;DHT22;5028;50.974;4.968;2023-06-24T13:49:04;33.10;88.50
9975;DHT22;5028;50.974;4.968;2023-06-24T13:51:33;32.80;90.00
9975;DHT22;5028;50.974;4.968;2023-06-24T13:54:03;32.10;90.10
9975;DHT22;5028;50.974;4.968;2023-06-24T13:56:31;32.10;91.30
9975;DHT22;5028;50.974;4.968;2023-06-24T13:59:00;32.70;91.80
9975;DHT22;5028;50.974;4.968;2023-06-24T14:01:29;33.30;91.30
9975;DHT22;5028;50.974;4.968;2023-06-24T14:03:58;33.20;88.10
9975;DHT22;5028;50.974;4.968;2023-06-24T14:06:29;32.70;89.70
9975;DHT22;5028;50.974;4.968;2023-06-24T14:08:58;32.50;88.30
9975;DHT22;5028;50.974;4.968;2023-06-24T14:11:27;32.60;90.50
9975;DHT22;5028;50.974;4.968;2023-06-24T14:13:55;32.90;89.60
9975;DHT22;5028;50.974;4.968;2023-06-24T14:16:24;33.30;90.00
9975;DHT22;5028;50.974;4.968;2023-06-24T14:18:52;33.20;90.60
9975;DHT22;5028;50.974;4.968;2023-06-24T14:21:21;33.30;88.70
9975;DHT22;5028;50.974;4.968;2023-06-24T14:23:51;33.10;88.30
9975;DHT22;5028;50.974;4.968;2023-06-24T14:26:23;33.00;88.00
9975;DHT22;5028;50.974;4.968;2023-06-24T14:28:55;33.00;87.70
9975;DHT22;5028;50.974;4.968;2023-06-24T14:31:26;33.00;87.50
9975;DHT22;5028;50.974;4.968;2023-06-24T14:33:55;32.70;86.40
9975;DHT22;5028;50.974;4.968;2023-06-24T14:36:24;32.40;86.70
9975;DHT22;5028;50.974;4.968;2023-06-24T14:38:54;32.00;87.80
9975;DHT22;5028;50.974;4.968;2023-06-24T14:41:23;31.70;89.40
9975;DHT22;5028;50.974;4.968;2023-06-24T14:43:52;32.20;91.30
9975;DHT22;5028;50.974;4.968;2023-06-24T14:46:21;32.30;88.10
9975;DHT22;5028;50.974;4.968;2023-06-24T14:48:50;32.40;89.80
9975;DHT22;5028;50.974;4.968;2023-06-24T14:51:19;32.70;89.60
9975;DHT22;5028;50.974;4.968;2023-06-24T14:53:48;33.00;89.10
9975;DHT22;5028;50.974;4.968;2023-06-24T14:56:18;33.10;88.50
9975;DHT22;5028;50.974;4.968;2023-06-24T14:58:46;32.90;89.20
9975;DHT22;5028;50.974;4.968;2023-06-24T15:01:16;32.90;89.70
9975;DHT22;5028;50.974;4.968;2023-06-24T15:03:45;32.80;89.00
9975;DHT22;5028;50.974;4.968;2023-06-24T15:06:13;32.30;89.80
9975;DHT22;5028;50.974;4.968;2023-06-24T15:08:42;32.00;88.10
9975;DHT22;5028;50.974;4.968;2023-06-24T15:11:11;31.70;90.30
9975;DHT22;5028;50.974;4.968;2023-06-24T15:13:41;30.90;89.60
9975;DHT22;5028;50.974;4.968;2023-06-24T15:16:10;30.10;90.10
9975;DHT22;5028;50.974;4.968;2023-06-24T15:18:44;29.70;90.70
9975;DHT22;5028;50.974;4.968;2023-06-24T15:21:15;29.70;91.40
9975;DHT22;5028;50.974;4.968;2023-06-24T15:24:01;29.80;90.50
9975;DHT22;5028;50.974;4.968;2023-06-24T15:26:30;29.60;90.00
9975;DHT22;5028;50.974;4.968;2023-06-24T15:29:00;29.40;90.60
9975;DHT22;5028;50.974;4.968;2023-06-24T15:31:29;29.30;90.30
9975;DHT22;5028;50.974;4.968;2023-06-24T15:33:58;29.20;90.70
9975;DHT22;5028;50.974;4.968;2023-06-24T15:36:27;29.00;91.60
9975;DHT22;5028;50.974;4.968;2023-06-24T15:38:56;29.00;91.60
9975;DHT22;5028;50.974;4.968;2023-06-24T15:41:26;29.20;90.90
9975;DHT22;5028;50.974;4.968;2023-06-24T15:43:54;29.20;91.00
9975;DHT22;5028;50.974;4.968;2023-06-24T15:46:25;29.30;90.60
9975;DHT22;5028;50.974;4.968;2023-06-24T15:48:54;29.40;91.20
9975;DHT22;5028;50.974;4.968;2023-06-24T15:51:24;29.10;90.10
9975;DHT22;5028;50.974;4.968;2023-06-24T15:53:52;28.80;90.40
9975;DHT22;5028;50.974;4.968;2023-06-24T15:56:22;28.60;91.60
9975;DHT22;5028;50.974;4.968;2023-06-24T15:58:52;28.60;91.60
9975;DHT22;5028;50.974;4.968;2023-06-24T16:01:20;28.60;91.60
9975;DHT22;5028;50.974;4.968;2023-06-24T16:03:51;28.60;90.80
9975;DHT22;5028;50.974;4.968;2023-06-24T16:06:20;28.50;90.80
9975;DHT22;5028;50.974;4.968;2023-06-24T16:08:50;28.30;90.30
9975;DHT22;5028;50.974;4.968;2023-06-24T16:11:19;28.20;90.60
9975;DHT22;5028;50.974;4.968;2023-06-24T16:13:49;28.10;91.10
9975;DHT22;5028;50.974;4.968;2023-06-24T16:16:18;28.30;91.90
9975;DHT22;5028;50.974;4.968;2023-06-24T16:18:48;28.40;92.20
9975;DHT22;5028;50.974;4.968;2023-06-24T16:21:18;28.50;92.20
9975;DHT22;5028;50.974;4.968;2023-06-24T16:23:47;28.50;91.50